Time;durP1;ratioP1;P1;durP2;ratioP2;P2;SDS_P1;SDS_P2;PMS_P1;PMS_P2;Temp;Humidity;BMP_temperature;BMP_pressure;BME280_temperature;BME280_humidity;BME280_pressure;Samples;Min_cycle;Max_cycle;Signal;HPM_P1;HPM_P2
2022/05/01 00:01:18;;;;;;;14.07;10.15;;;8.00;99.90;;;;;;5035303;28;20065;-84
2022/05/01 00:03:44;;;;;;;14.50;10.32;;;8.00;99.90;;;;;;5052855;28;20179;-84
2022/05/01 00:06:11;;;;;;;14.80;10.15;;;8.10;99.90;;;;;;5051889;28;20088;-84
2022/05/01 00:08:40;;;;;;;12.43;9.50;;;8.00;99.90;;;;;;5051735;28;20087;-84
2022/05/01 00:11:08;;;;;;;13.82;9.75;;;8.00;99.90;;;;;;5051502;28;20048;-85
2022/05/01 00:13:34;;;;;;;15.55;10.38;;;8.00;99.90;;;;;;5017547;28;20088;-85
2022/05/01 00:16:00;;;;;;;14.82;10.07;;;7.90;99.90;;;;;;5034848;28;20037;-85
2022/05/01 00:18:26;;;;;;;15.00;11.18;;;7.90;99.90;;;;;;5052379;28;20107;-84
2022/05/01 00:20:52;;;;;;;16.02;12.13;;;8.10;99.90;;;;;;5052615;28;20037;-84
2022/05/01 00:23:19;;;;;;;14.63;11.75;;;7.90;99.90;;;;;;5018654;28;20087;-85
2022/05/01 00:25:45;;;;;;;17.33;11.73;;;7.90;99.90;;;;;;5052888;28;20041;-85
2022/05/01 00:28:11;;;;;;;18.88;13.50;;;7.90;99.90;;;;;;5050956;28;20044;-85
2022/05/01 00:30:38;;;;;;;17.08;11.68;;;7.90;99.90;;;;;;5052528;28;20295;-85
2022/05/01 00:38:37;;;;;;;18.35;12.90;;;7.90;99.90;;;;;;5038177;28;20057;-84
2022/05/01 00:41:04;;;;;;;18.40;12.60;;;7.90;99.90;;;;;;5038255;28;20548;-84
2022/05/01 00:43:31;;;;;;;18.63;13.30;;;8.20;99.90;;;;;;5056280;28;20151;-85
2022/05/01 00:45:57;;;;;;;18.52;13.20;;;7.90;99.90;;;;;;5056205;28;20494;-85
2022/05/01 00:48:23;;;;;;;18.20;13.18;;;7.90;99.90;;;;;;5056262;28;20041;-86
2022/05/01 00:50:51;;;;;;;22.33;12.35;;;7.90;99.90;;;;;;5038802;28;20109;-84
2022/05/01 00:53:17;;;;;;;17.33;13.00;;;7.90;99.90;;;;;;5038915;28;20045;-85
2022/05/01 00:55:44;;;;;;;15.65;12.15;;;8.10;99.90;;;;;;5056421;28;20041;-84
2022/05/01 00:58:09;;;;;;;17.60;12.13;;;7.90;99.90;;;;;;5057492;28;20115;-85
2022/05/01 01:00:35;;;;;;;16.35;12.05;;;7.90;99.90;;;;;;5041621;28;20057;-84
2022/05/01 01:03:02;;;;;;;16.60;11.38;;;7.90;99.90;;;;;;5061971;28;20052;-84
2022/05/01 01:05:28;;;;;;;16.73;11.82;;;8.00;99.90;;;;;;5042951;28;20132;-86
2022/05/01 01:07:53;;;;;;;15.25;11.50;;;7.90;99.90;;;;;;5045085;28;20075;-84
2022/05/01 01:10:20;;;;;;;15.38;12.50;;;7.90;99.90;;;;;;5059844;28;20533;-84
2022/05/01 01:12:54;;;;;;;15.20;12.13;;;7.80;99.90;;;;;;5043596;28;20045;-85
2022/05/01 01:15:28;;;;;;;15.93;12.15;;;7.90;99.90;;;;;;5060326;28;20128;-87
2022/05/01 01:17:55;;;;;;;16.17;12.52;;;7.80;99.90;;;;;;5025095;28;20045;-85
2022/05/01 01:20:22;;;;;;;20.35;13.32;;;7.80;99.90;;;;;;5040601;28;20131;-84
2022/05/01 01:22:49;;;;;;;19.08;13.55;;;7.80;99.90;;;;;;5023457;28;20144;-85
2022/05/01 01:25:19;;;;;;;18.75;12.88;;;7.70;99.90;;;;;;5040031;28;20049;-84
2022/05/01 01:27:44;;;;;;;20.10;13.75;;;7.70;99.90;;;;;;5056710;28;20041;-84
2022/05/01 01:32:55;;;;;;;16.55;13.13;;;7.70;99.90;;;;;;5038057;28;20053;-85
2022/05/01 01:35:24;;;;;;;17.58;13.00;;;7.70;99.90;;;;;;5055902;28;20049;-85
2022/05/01 01:37:52;;;;;;;20.23;13.55;;;7.70;99.90;;;;;;5037737;28;20052;-85
2022/05/01 01:40:23;;;;;;;17.00;14.27;;;7.70;99.90;;;;;;5055807;28;20048;-85
2022/05/01 01:42:50;;;;;;;19.30;14.07;;;7.70;99.90;;;;;;5054668;28;20509;-84
2022/05/01 01:45:16;;;;;;;17.02;13.18;;;7.70;99.90;;;;;;5055342;28;20056;-85
2022/05/01 01:47:49;;;;;;;18.05;13.77;;;7.70;99.90;;;;;;5052792;28;20041;-84
2022/05/01 01:50:18;;;;;;;18.45;13.65;;;7.70;99.90;;;;;;5037268;28;20053;-84
2022/05/01 01:52:47;;;;;;;19.52;13.32;;;7.60;99.90;;;;;;5037445;28;20044;-85
2022/05/01 01:55:15;;;;;;;17.80;13.80;;;7.60;99.90;;;;;;5055016;28;20045;-84
2022/05/01 01:57:45;;;;;;;16.77;13.45;;;7.60;99.90;;;;;;5054918;28;20167;-85
2022/05/01 02:00:12;;;;;;;18.13;14.10;;;7.70;99.90;;;;;;5037218;28;20049;-84
2022/05/01 02:02:37;;;;;;;17.98;13.52;;;7.60;99.90;;;;;;5020667;28;20486;-85
2022/05/01 02:05:04;;;;;;;20.30;14.55;;;7.60;99.90;;;;;;5053676;28;20103;-84
2022/05/01 02:07:30;;;;;;;19.88;14.88;;;7.60;99.90;;;;;;5054537;28;20526;-84
2022/05/01 02:09:57;;;;;;;19.98;14.23;;;7.60;99.90;;;;;;5037341;28;20059;-84
2022/05/01 02:12:23;;;;;;;22.98;14.07;;;7.80;99.90;;;;;;5036972;28;20060;-85
2022/05/01 02:14:49;;;;;;;18.30;12.88;;;7.80;99.90;;;;;;5054477;28;20074;-85
2022/05/01 02:17:15;;;;;;;16.40;13.10;;;7.70;99.90;;;;;;5054400;28;20049;-87
2022/05/01 02:19:41;;;;;;;21.45;14.05;;;7.60;99.90;;;;;;5054195;28;20494;-85
2022/05/01 02:22:07;;;;;;;23.52;14.80;;;7.80;99.90;;;;;;5053648;28;20139;-85
2022/05/01 02:24:33;;;;;;;21.83;15.07;;;7.60;99.90;;;;;;5037074;28;20049;-86
2022/05/01 02:27:00;;;;;;;18.40;14.05;;;7.60;99.90;;;;;;5036625;28;20545;-85
2022/05/01 02:29:26;;;;;;;18.83;14.20;;;7.60;99.90;;;;;;5054412;28;20057;-84
2022/05/01 02:31:55;;;;;;;21.55;14.63;;;7.60;99.90;;;;;;5036648;28;20084;-84
2022/05/01 02:34:22;;;;;;;18.77;14.25;;;7.60;99.90;;;;;;5053939;28;20048;-84
2022/05/01 02:36:51;;;;;;;20.63;14.50;;;7.60;99.90;;;;;;5054353;28;20098;-84
2022/05/01 02:39:17;;;;;;;20.40;13.70;;;7.70;99.90;;;;;;5036759;28;20041;-84
2022/05/01 02:41:43;;;;;;;18.90;13.40;;;7.70;99.90;;;;;;5036683;28;20506;-84
2022/05/01 02:44:10;;;;;;;20.20;14.13;;;7.60;99.90;;;;;;5035330;28;20059;-85
2022/05/01 02:46:36;;;;;;;19.48;14.00;;;7.60;99.90;;;;;;5053974;28;20187;-84
2022/05/01 02:49:02;;;;;;;20.98;13.88;;;7.60;99.90;;;;;;5053649;28;20041;-85
2022/05/01 02:51:28;;;;;;;18.77;14.00;;;7.60;99.90;;;;;;5054120;28;20064;-85
2022/05/01 02:53:55;;;;;;;19.55;14.32;;;7.60;99.90;;;;;;5053869;28;20112;-85
2022/05/01 02:56:21;;;;;;;20.60;13.65;;;7.60;99.90;;;;;;5053788;28;20131;-84
2022/05/01 02:58:47;;;;;;;22.58;14.90;;;7.60;99.90;;;;;;5032635;28;20041;-85
2022/05/01 03:01:13;;;;;;;22.42;14.90;;;7.60;99.90;;;;;;5019853;28;20053;-84
2022/05/01 03:03:38;;;;;;;20.13;14.48;;;7.80;99.90;;;;;;5035186;28;20495;-86
2022/05/01 03:06:04;;;;;;;19.80;14.95;;;7.60;99.90;;;;;;5053793;28;20402;-85
2022/05/01 03:08:30;;;;;;;19.85;14.23;;;7.60;99.90;;;;;;5051970;28;20491;-85
2022/05/01 03:10:55;;;;;;;22.38;15.10;;;7.60;99.90;;;;;;5053635;28;20055;-86
2022/05/01 03:13:21;;;;;;;24.02;14.95;;;7.50;99.90;;;;;;5053531;28;20441;-85
2022/05/01 03:15:47;;;;;;;25.48;15.63;;;7.50;99.90;;;;;;5053588;28;20037;-85
2022/05/01 03:23:49;;;;;;;22.42;14.63;;;7.50;99.90;;;;;;4975699;28;20054;-85
2022/05/01 03:26:18;;;;;;;19.25;15.73;;;7.70;99.90;;;;;;4975123;28;20389;-85
2022/05/01 03:28:47;;;;;;;19.63;15.73;;;7.50;99.90;;;;;;4975464;28;20054;-85
2022/05/01 03:31:14;;;;;;;19.65;14.55;;;7.50;99.90;;;;;;4959541;28;20059;-84
2022/05/01 03:33:42;;;;;;;21.58;14.90;;;7.50;99.90;;;;;;4975562;28;20054;-86
2022/05/01 03:36:09;;;;;;;19.95;14.73;;;7.50;99.90;;;;;;4991420;28;20050;-85
2022/05/01 03:38:36;;;;;;;22.58;16.40;;;7.50;99.90;;;;;;4975513;28;20058;-85
2022/05/01 03:41:04;;;;;;;20.35;15.32;;;7.50;99.90;;;;;;4991377;28;20599;-85
2022/05/01 03:43:32;;;;;;;21.75;15.60;;;7.50;99.90;;;;;;4959052;28;20423;-85
2022/05/01 03:45:58;;;;;;;23.70;16.45;;;7.40;99.90;;;;;;4975196;28;20706;-85
2022/05/01 03:48:24;;;;;;;22.52;15.93;;;7.40;99.90;;;;;;4991430;28;20192;-84
2022/05/01 03:50:51;;;;;;;23.52;16.52;;;7.50;99.90;;;;;;4991246;28;20145;-85
2022/05/01 03:53:17;;;;;;;23.20;16.50;;;7.40;99.90;;;;;;4991364;28;20216;-85
2022/05/01 03:55:43;;;;;;;23.17;15.65;;;7.30;99.90;;;;;;4991106;28;20475;-85
2022/05/01 03:58:09;;;;;;;21.30;15.80;;;7.50;99.90;;;;;;5008340;28;20172;-85
2022/05/01 04:00:35;;;;;;;19.13;15.00;;;7.40;99.90;;;;;;5034828;28;20098;-84
2022/05/01 04:03:01;;;;;;;22.20;15.32;;;7.60;99.90;;;;;;5034789;28;20045;-85
2022/05/01 04:05:26;;;;;;;25.42;15.00;;;7.30;99.90;;;;;;5034668;28;20114;-85
2022/05/01 04:07:52;;;;;;;22.38;15.00;;;7.30;99.90;;;;;;5034214;28;20055;-84
2022/05/01 04:10:18;;;;;;;23.48;15.95;;;7.30;99.90;;;;;;5051818;28;20041;-84
2022/05/01 04:12:44;;;;;;;25.92;16.02;;;7.30;99.90;;;;;;5033822;28;20040;-85
2022/05/01 04:15:12;;;;;;;21.92;15.88;;;7.30;99.90;;;;;;5052027;28;20128;-84
2022/05/01 04:17:40;;;;;;;21.98;15.82;;;7.30;99.90;;;;;;5052956;28;20110;-84
2022/05/01 04:20:08;;;;;;;25.30;15.13;;;7.30;99.90;;;;;;5034746;28;20128;-84
2022/05/01 04:22:48;;;;;;;25.67;15.70;;;7.30;99.90;;;;;;5034748;28;20049;-84
2022/05/01 04:25:18;;;;;;;25.38;16.38;;;7.30;99.90;;;;;;5052710;28;20049;-84
2022/05/01 04:27:46;;;;;;;22.85;16.38;;;7.30;99.90;;;;;;5052453;28;20045;-87
2022/05/01 04:30:13;;;;;;;24.70;16.17;;;7.30;99.90;;;;;;5018322;28;20052;-85
2022/05/01 04:32:53;;;;;;;21.30;15.32;;;7.30;99.90;;;;;;5034416;28;20065;-85
2022/05/01 04:35:31;;;;;;;17.88;13.98;;;7.30;99.90;;;;;;5034835;28;20041;-84
2022/05/01 04:38:02;;;;;;;22.20;15.77;;;7.30;99.90;;;;;;5052297;28;20107;-84
2022/05/01 04:40:29;;;;;;;19.98;13.93;;;7.60;99.90;;;;;;5051986;28;20048;-84
2022/05/01 04:43:09;;;;;;;21.52;14.95;;;7.40;99.90;;;;;;5018320;28;20060;-85
2022/05/01 04:45:37;;;;;;;22.15;16.08;;;7.40;99.90;;;;;;5052168;28;20049;-84
2022/05/01 04:48:04;;;;;;;24.42;17.33;;;7.80;99.90;;;;;;5018031;28;20103;-86
2022/05/01 04:50:30;;;;;;;23.50;16.73;;;7.40;99.90;;;;;;5034572;28;20128;-85
2022/05/01 04:52:56;;;;;;;22.15;16.38;;;7.40;99.90;;;;;;5017627;28;20133;-85
2022/05/01 04:55:22;;;;;;;24.63;16.98;;;7.70;99.90;;;;;;5052455;28;20045;-85
2022/05/01 04:57:48;;;;;;;24.13;17.63;;;7.50;99.90;;;;;;5034424;28;20178;-85
2022/05/01 05:00:15;;;;;;;23.92;17.67;;;7.50;99.90;;;;;;5050890;28;20048;-85
2022/05/01 05:02:42;;;;;;;23.45;16.65;;;7.50;99.90;;;;;;5051811;28;20045;-84
2022/05/01 05:05:12;;;;;;;24.38;16.98;;;7.50;99.90;;;;;;5050951;28;20045;-84
2022/05/01 05:07:39;;;;;;;22.88;16.63;;;7.60;99.90;;;;;;5051629;28;20071;-84
2022/05/01 05:10:07;;;;;;;22.15;17.48;;;7.60;99.90;;;;;;5034345;28;20490;-85
2022/05/01 05:12:34;;;;;;;22.73;15.98;;;7.70;99.90;;;;;;5017563;28;20065;-85
2022/05/01 05:15:06;;;;;;;22.45;15.35;;;7.70;99.90;;;;;;5051730;28;20127;-84
2022/05/01 05:17:33;;;;;;;22.55;16.83;;;7.80;99.90;;;;;;5034123;28;20053;-85
2022/05/01 05:19:59;;;;;;;21.55;16.23;;;7.80;99.90;;;;;;5034147;28;20048;-85
2022/05/01 05:22:25;;;;;;;20.55;16.20;;;7.90;99.90;;;;;;5036757;28;20107;-85
2022/05/01 05:24:51;;;;;;;20.63;15.20;;;8.00;99.90;;;;;;5054797;28;20564;-85
2022/05/01 05:27:20;;;;;;;20.60;15.00;;;8.20;99.90;;;;;;5021373;28;20044;-85
2022/05/01 05:29:49;;;;;;;23.45;15.95;;;8.10;99.90;;;;;;5021539;28;20498;-84
2022/05/01 05:32:16;;;;;;;22.05;16.83;;;8.10;99.90;;;;;;5021659;28;20048;-84
2022/05/01 05:34:42;;;;;;;30.30;17.58;;;8.20;99.90;;;;;;5036977;28;20056;-84
2022/05/01 05:37:07;;;;;;;25.02;17.30;;;8.20;99.90;;;;;;5037339;28;20041;-84
2022/05/01 05:39:33;;;;;;;24.13;16.63;;;8.30;99.90;;;;;;5037737;28;20048;-84
2022/05/01 05:41:58;;;;;;;25.60;16.63;;;8.60;99.90;;;;;;5037456;28;20099;-85
2022/05/01 05:44:24;;;;;;;21.98;15.90;;;8.30;99.90;;;;;;5055130;28;20052;-85
2022/05/01 05:46:50;;;;;;;22.67;16.13;;;8.60;99.90;;;;;;5037453;28;20060;-85
2022/05/01 05:49:16;;;;;;;22.58;15.60;;;8.40;99.90;;;;;;5037326;28;20053;-85
2022/05/01 05:51:41;;;;;;;21.55;15.68;;;8.50;99.90;;;;;;5037215;28;20316;-85
2022/05/01 05:54:07;;;;;;;20.58;15.25;;;8.50;99.90;;;;;;5055275;28;20052;-85
2022/05/01 05:56:35;;;;;;;19.38;15.15;;;8.50;99.90;;;;;;5036605;28;20048;-86
2022/05/01 05:59:04;;;;;;;19.52;15.13;;;8.70;99.90;;;;;;5037101;28;20418;-85
2022/05/01 06:01:30;;;;;;;23.05;16.13;;;8.70;99.90;;;;;;5054839;28;20078;-85
2022/05/01 06:03:55;;;;;;;18.10;15.00;;;8.80;99.90;;;;;;5054630;28;20144;-88
2022/05/01 06:06:21;;;;;;;19.33;15.30;;;9.00;99.90;;;;;;5053348;28;20094;-85
2022/05/01 06:08:49;;;;;;;23.38;16.17;;;8.90;99.90;;;;;;5037732;28;20049;-85
2022/05/01 06:11:15;;;;;;;22.40;16.80;;;8.90;99.90;;;;;;5055019;28;20060;-85
2022/05/01 06:13:41;;;;;;;22.58;14.90;;;8.90;99.90;;;;;;5054560;28;20057;-87
2022/05/01 06:16:07;;;;;;;20.25;15.23;;;9.00;99.90;;;;;;5036713;28;20049;-84
2022/05/01 06:18:32;;;;;;;20.58;15.20;;;9.30;99.90;;;;;;5053735;28;20049;-84
2022/05/01 06:20:58;;;;;;;18.95;15.13;;;9.00;99.90;;;;;;5036237;28;20065;-85
2022/05/01 06:23:24;;;;;;;25.98;16.33;;;9.00;99.90;;;;;;5054489;28;20083;-86
2022/05/01 06:25:50;;;;;;;21.42;14.52;;;9.00;99.90;;;;;;5036452;28;20059;-85
2022/05/01 06:28:17;;;;;;;21.98;17.13;;;8.80;99.90;;;;;;5054448;28;20133;-85
2022/05/01 06:30:45;;;;;;;21.90;16.00;;;9.00;99.90;;;;;;5054246;28;20048;-85
2022/05/01 06:33:22;;;;;;;23.63;16.63;;;9.10;99.90;;;;;;5035914;28;20059;-86
2022/05/01 06:35:49;;;;;;;21.58;15.48;;;9.10;99.90;;;;;;5019869;28;20082;-85
2022/05/01 06:38:15;;;;;;;20.00;15.43;;;9.10;99.90;;;;;;5036637;28;20133;-87
2022/05/01 06:40:43;;;;;;;22.15;15.40;;;9.30;99.90;;;;;;5054218;28;20053;-85
2022/05/01 06:43:12;;;;;;;19.33;15.38;;;9.20;99.90;;;;;;5036151;28;20107;-84
2022/05/01 06:45:38;;;;;;;19.58;16.42;;;9.30;99.90;;;;;;5054120;28;20410;-85
2022/05/01 06:48:04;;;;;;;22.45;16.17;;;9.30;99.90;;;;;;5036372;28;20068;-85
2022/05/01 06:50:30;;;;;;;22.88;16.45;;;9.40;99.90;;;;;;5053752;28;20079;-85
2022/05/01 06:52:56;;;;;;;19.85;15.50;;;9.50;99.90;;;;;;5053883;28;20096;-84
2022/05/01 06:55:25;;;;;;;18.98;15.35;;;9.60;99.90;;;;;;5052752;28;20444;-84
2022/05/01 06:57:52;;;;;;;20.08;15.45;;;9.80;99.90;;;;;;5019314;28;20110;-85
2022/05/01 07:00:18;;;;;;;19.67;16.27;;;9.90;99.90;;;;;;5052294;28;20400;-84
2022/05/01 07:02:45;;;;;;;19.40;15.00;;;10.00;99.90;;;;;;5035729;28;20052;-85
2022/05/01 07:05:11;;;;;;;19.77;15.95;;;10.00;99.90;;;;;;5057836;28;20045;-85
2022/05/01 07:07:37;;;;;;;21.17;15.50;;;10.10;99.90;;;;;;5033467;28;20071;-85
2022/05/01 07:10:03;;;;;;;20.65;15.40;;;10.50;99.90;;;;;;5017699;28;20053;-84
2022/05/01 07:12:29;;;;;;;19.75;14.07;;;10.30;99.90;;;;;;5063697;28;20044;-84
2022/05/01 07:14:54;;;;;;;19.90;14.00;;;10.50;99.90;;;;;;5060856;28;20037;-84
2022/05/01 07:17:20;;;;;;;19.92;15.48;;;10.60;99.90;;;;;;5042547;28;20130;-88
2022/05/01 07:19:45;;;;;;;17.75;14.18;;;10.70;99.90;;;;;;5061881;28;20171;-85
2022/05/01 07:22:14;;;;;;;17.23;13.75;;;10.80;99.90;;;;;;5058787;28;20148;-85
2022/05/01 07:24:40;;;;;;;17.33;14.13;;;11.20;99.90;;;;;;5061447;28;20053;-85
2022/05/01 07:27:05;;;;;;;17.55;13.93;;;11.20;99.90;;;;;;5040178;28;20039;-85
2022/05/01 07:29:31;;;;;;;19.23;13.98;;;11.40;99.90;;;;;;5048243;28;20055;-87
2022/05/01 07:31:57;;;;;;;16.08;13.15;;;11.40;99.90;;;;;;5046115;28;20441;-85
2022/05/01 07:34:22;;;;;;;18.15;12.88;;;11.60;99.90;;;;;;5039394;28;20471;-86
2022/05/01 07:36:48;;;;;;;20.00;12.82;;;11.70;99.90;;;;;;5048030;28;20090;-85
2022/05/01 07:39:16;;;;;;;13.98;11.70;;;11.90;99.90;;;;;;5029208;28;20033;-85
2022/05/01 07:41:42;;;;;;;17.23;12.82;;;12.10;99.90;;;;;;5029744;28;20103;-84
2022/05/01 07:44:11;;;;;;;15.10;12.07;;;12.50;99.90;;;;;;5054981;28;20052;-85
2022/05/01 07:46:41;;;;;;;18.33;11.73;;;12.50;99.90;;;;;;5027247;28;20064;-86
2022/05/01 07:49:08;;;;;;;17.40;12.38;;;12.80;99.90;;;;;;5015660;28;20136;-86
2022/05/01 07:51:34;;;;;;;14.20;11.95;;;13.00;99.90;;;;;;5023296;28;20060;-85
2022/05/01 07:54:01;;;;;;;14.52;12.23;;;13.20;99.90;;;;;;5049018;28;20040;-85
2022/05/01 07:56:27;;;;;;;15.32;12.10;;;13.20;99.90;;;;;;5035881;28;20079;-86
2022/05/01 07:58:53;;;;;;;13.85;10.82;;;13.20;99.90;;;;;;5011990;28;20464;-86
2022/05/01 08:01:19;;;;;;;15.52;10.68;;;13.30;99.90;;;;;;5059005;28;20132;-85
2022/05/01 08:06:30;;;;;;;13.02;10.10;;;13.70;99.90;;;;;;5060439;28;20061;-86
2022/05/01 08:08:55;;;;;;;12.80;9.73;;;13.90;99.90;;;;;;5048066;28;20513;-85
2022/05/01 08:11:21;;;;;;;12.52;9.07;;;14.10;99.90;;;;;;5055909;28;20040;-85
2022/05/01 08:13:50;;;;;;;10.02;6.45;;;14.20;99.90;;;;;;5029307;28;20166;-86
2022/05/01 08:16:17;;;;;;;11.27;6.35;;;14.20;99.90;;;;;;5033388;28;20041;-86
2022/05/01 08:21:28;;;;;;;11.13;8.35;;;14.40;99.90;;;;;;5032692;28;20049;-87
2022/05/01 08:23:54;;;;;;;9.82;7.53;;;14.30;99.90;;;;;;5031698;28;20060;-86
2022/05/01 08:26:21;;;;;;;9.18;7.45;;;14.50;99.90;;;;;;5034997;28;20045;-85
2022/05/01 08:28:47;;;;;;;12.23;8.43;;;14.40;99.90;;;;;;5052637;28;20045;-86
2022/05/01 08:31:13;;;;;;;11.15;9.15;;;14.30;99.90;;;;;;5017546;28;20101;-86
2022/05/01 08:33:39;;;;;;;10.77;8.23;;;14.40;99.90;;;;;;5025725;28;20056;-85
2022/05/01 08:36:06;;;;;;;9.20;7.10;;;14.50;99.90;;;;;;5033394;28;20057;-86
2022/05/01 08:38:33;;;;;;;9.00;6.32;;;14.70;99.90;;;;;;5027999;28;20053;-86
2022/05/01 08:40:59;;;;;;;12.38;6.53;;;15.10;99.90;;;;;;5047403;28;20507;-86
2022/05/01 08:43:25;;;;;;;10.00;7.28;;;15.40;99.90;;;;;;5051650;28;20049;-84
2022/05/01 08:46:11;;;;;;;11.25;6.90;;;15.40;98.90;;;;;;5017339;28;20053;-87
2022/05/01 08:48:37;;;;;;;12.25;7.35;;;15.40;98.20;;;;;;5017354;28;20106;-85
2022/05/01 08:51:04;;;;;;;8.98;6.80;;;15.80;96.80;;;;;;5016509;28;20494;-89
2022/05/01 08:53:31;;;;;;;7.35;5.93;;;16.30;94.50;;;;;;5019673;28;20060;-86
2022/05/01 08:55:58;;;;;;;12.13;5.85;;;16.70;90.00;;;;;;5024946;28;20042;-86
2022/05/01 08:58:24;;;;;;;9.20;5.30;;;17.20;82.40;;;;;;5026312;28;20050;-86
2022/05/01 09:00:51;;;;;;;7.88;5.88;;;17.40;75.20;;;;;;5035720;28;20091;-89
2022/05/01 09:03:18;;;;;;;7.30;5.72;;;17.40;72.30;;;;;;5037591;28;20171;-86
2022/05/01 09:05:44;;;;;;;7.82;6.57;;;17.40;74.00;;;;;;5032416;28;20053;-87
2022/05/01 09:08:10;;;;;;;8.60;6.00;;;17.60;73.70;;;;;;5021247;28;20069;-88
2022/05/01 09:10:39;;;;;;;6.93;4.90;;;18.00;70.60;;;;;;5055335;28;20044;-86
2022/05/01 09:13:06;;;;;;;8.45;5.13;;;18.60;68.10;;;;;;5037338;28;20037;-85
2022/05/01 09:15:35;;;;;;;6.95;4.78;;;19.20;63.80;;;;;;5032793;28;20059;-86
2022/05/01 09:18:02;;;;;;;6.18;4.50;;;19.50;62.80;;;;;;5041006;28;20098;-87
2022/05/01 09:20:28;;;;;;;7.85;5.90;;;20.00;60.90;;;;;;5022968;28;20081;-87
2022/05/01 09:22:55;;;;;;;8.85;5.45;;;20.50;59.80;;;;;;5008513;28;20049;-88
2022/05/01 09:25:28;;;;;;;6.43;5.15;;;20.90;57.00;;;;;;5027779;28;20041;-87
2022/05/01 09:27:59;;;;;;;6.43;4.72;;;21.30;56.40;;;;;;5027103;28;20045;-87
2022/05/01 09:30:36;;;;;;;7.25;5.68;;;21.80;54.10;;;;;;5009866;28;20046;-87
2022/05/01 09:33:03;;;;;;;7.03;4.95;;;22.30;51.10;;;;;;5036419;28;20041;-87
2022/05/01 09:35:31;;;;;;;5.93;5.03;;;22.70;51.90;;;;;;5042187;28;20051;-88
2022/05/01 09:38:26;;;;;;;5.93;4.40;;;23.00;51.30;;;;;;5064565;28;20041;-86
2022/05/01 09:41:00;;;;;;;8.10;4.95;;;23.70;49.10;;;;;;5025266;28;20051;-88
2022/05/01 09:43:44;;;;;;;7.30;5.65;;;24.40;47.70;;;;;;5021262;28;20054;-88
2022/05/01 09:46:25;;;;;;;6.50;4.80;;;24.70;46.00;;;;;;5056479;28;20406;-89
2022/05/01 09:49:00;;;;;;;5.47;4.40;;;24.80;44.30;;;;;;5039495;28;20053;-89
2022/05/01 09:51:42;;;;;;;9.10;5.60;;;24.60;44.60;;;;;;5034242;28;20106;-87
2022/05/01 09:54:09;;;;;;;7.03;4.80;;;24.50;44.90;;;;;;5035483;28;20056;-88
2022/05/01 09:56:44;;;;;;;8.48;5.30;;;24.70;45.60;;;;;;5026709;28;20053;-85
2022/05/01 09:59:10;;;;;;;5.90;5.30;;;25.10;44.60;;;;;;5035909;28;20058;-87
2022/05/01 10:01:36;;;;;;;6.07;5.13;;;25.10;45.10;;;;;;5042419;28;20052;-87
2022/05/01 10:04:03;;;;;;;7.53;5.32;;;25.20;43.20;;;;;;5040004;28;20124;-87
2022/05/01 10:06:31;;;;;;;5.82;5.22;;;25.30;43.70;;;;;;5063130;28;20044;-87
2022/05/01 10:08:57;;;;;;;7.03;5.07;;;25.60;43.00;;;;;;5034650;28;20059;-88
2022/05/01 10:11:24;;;;;;;7.07;5.35;;;25.20;42.20;;;;;;5054486;28;20048;-87
2022/05/01 10:13:51;;;;;;;7.95;5.75;;;23.90;43.00;;;;;;5036633;28;20533;-88
2022/05/01 10:16:17;;;;;;;7.18;5.45;;;23.00;45.20;;;;;;5008762;28;20079;-89
2022/05/01 10:18:44;;;;;;;6.65;5.88;;;23.20;44.90;;;;;;5054048;28;20045;-88
2022/05/01 10:21:11;;;;;;;6.68;5.00;;;23.20;43.70;;;;;;5021104;28;20110;-87
2022/05/01 10:23:37;;;;;;;9.00;5.55;;;23.20;44.10;;;;;;5053662;28;20061;-87
2022/05/01 10:26:13;;;;;;;9.88;5.45;;;23.10;44.10;;;;;;5037642;28;20509;-87
2022/05/01 10:28:50;;;;;;;7.80;5.00;;;23.60;43.70;;;;;;5035532;28;20506;-88
2022/05/01 10:34:25;;;;;;;5.40;4.55;;;24.90;41.70;;;;;;5033337;28;20414;-87
2022/05/01 10:37:13;;;;;;;7.57;5.13;;;25.60;41.60;;;;;;5035594;28;20092;-89
2022/05/01 10:39:42;;;;;;;4.90;4.30;;;25.60;40.70;;;;;;5019462;28;20187;-88
2022/05/01 10:42:08;;;;;;;8.23;5.07;;;25.20;41.00;;;;;;5026053;28;20327;-88
2022/05/01 10:44:36;;;;;;;6.20;4.72;;;24.80;41.40;;;;;;5032449;28;20056;-88
2022/05/01 10:47:17;;;;;;;5.32;4.32;;;24.90;41.40;;;;;;5043130;28;20447;-89
2022/05/01 10:49:45;;;;;;;5.03;4.55;;;25.10;41.40;;;;;;5034112;28;20045;-89
2022/05/01 10:52:22;;;;;;;6.10;4.38;;;24.80;41.50;;;;;;5030634;28;20067;-88
2022/05/01 10:55:01;;;;;;;6.43;4.25;;;24.10;41.00;;;;;;5035576;28;20098;-88
2022/05/01 10:57:27;;;;;;;5.07;4.00;;;23.00;41.60;;;;;;5053832;28;20041;-87
2022/05/01 11:00:15;;;;;;;6.93;4.50;;;21.90;43.60;;;;;;5036078;28;20051;-87
2022/05/01 11:02:46;;;;;;;5.57;5.03;;;21.10;46.20;;;;;;5052881;28;20041;-88
2022/05/01 11:05:42;;;;;;;5.30;3.90;;;20.20;46.80;;;;;;5019034;28;20483;-87
2022/05/01 11:08:27;;;;;;;6.07;3.75;;;19.40;46.60;;;;;;5035370;28;20080;-87
2022/05/01 11:10:57;;;;;;;6.13;4.40;;;18.60;48.40;;;;;;5035335;28;20487;-88
2022/05/01 11:13:31;;;;;;;7.75;4.60;;;18.00;49.90;;;;;;5035779;28;20080;-88
2022/05/01 11:15:57;;;;;;;7.07;3.88;;;17.50;50.40;;;;;;5035622;28;20049;-87
2022/05/01 11:18:28;;;;;;;5.28;4.20;;;16.90;51.30;;;;;;5035213;28;20053;-87
2022/05/01 11:20:56;;;;;;;6.40;3.50;;;16.60;51.90;;;;;;5034984;28;20037;-87
2022/05/01 11:23:33;;;;;;;5.63;4.10;;;16.20;52.80;;;;;;5035509;28;20055;-88
2022/05/01 11:26:06;;;;;;;7.30;4.20;;;15.90;54.30;;;;;;5052622;28;20473;-88
2022/05/01 11:28:43;;;;;;;6.45;4.43;;;15.70;55.20;;;;;;5052993;28;20053;-88
2022/05/01 11:31:37;;;;;;;6.10;3.80;;;15.60;56.20;;;;;;5053328;28;20331;-87
2022/05/01 11:34:22;;;;;;;6.97;4.70;;;15.50;57.00;;;;;;5034908;28;20458;-86
2022/05/01 11:36:57;;;;;;;8.30;5.15;;;15.50;58.10;;;;;;5035196;28;20048;-88
2022/05/01 11:39:51;;;;;;;5.60;4.43;;;15.50;58.30;;;;;;5052386;28;20131;-88
2022/05/01 11:42:23;;;;;;;5.85;4.80;;;15.60;58.60;;;;;;5018772;28;20106;-89
2022/05/01 11:44:50;;;;;;;11.23;4.90;;;15.60;58.90;;;;;;5018194;28;20096;-91
2022/05/01 11:47:18;;;;;;;8.13;3.97;;;15.80;59.10;;;;;;5051193;28;20410;-87
2022/05/01 11:49:45;;;;;;;8.88;4.22;;;16.10;58.80;;;;;;5035121;28;20052;-87
2022/05/01 11:52:11;;;;;;;5.50;4.20;;;16.30;57.70;;;;;;5005953;28;20057;-88
2022/05/01 11:54:40;;;;;;;8.45;4.10;;;16.50;57.10;;;;;;5029590;28;20085;-88
2022/05/01 12:02:38;;;;;;;6.05;3.80;;;17.50;55.30;;;;;;5054039;28;20045;-86
2022/05/01 12:05:05;;;;;;;7.20;4.50;;;18.70;53.00;;;;;;5057890;28;20046;-86
2022/05/01 12:07:31;;;;;;;5.25;3.75;;;20.20;50.00;;;;;;5032766;28;20037;-87
2022/05/01 12:09:57;;;;;;;3.97;3.55;;;21.40;46.90;;;;;;5056663;28;20071;-87
2022/05/01 12:12:28;;;;;;;4.28;3.50;;;21.90;45.20;;;;;;5036411;28;20045;-87
2022/05/01 12:14:54;;;;;;;4.68;3.40;;;22.00;45.30;;;;;;5050014;28;20110;-86
2022/05/01 12:17:21;;;;;;;4.60;3.85;;;21.80;45.60;;;;;;5058018;28;20053;-88
2022/05/01 12:19:49;;;;;;;7.50;3.45;;;21.50;44.70;;;;;;5009410;28;20063;-88
2022/05/01 12:22:18;;;;;;;4.22;3.65;;;20.90;46.20;;;;;;5041271;28;20047;-86
2022/05/01 12:24:45;;;;;;;5.68;3.47;;;20.50;46.40;;;;;;5045105;28;20486;-86
2022/05/01 12:27:12;;;;;;;4.05;3.63;;;20.20;46.40;;;;;;5039814;28;20054;-87
2022/05/01 12:29:42;;;;;;;5.63;3.53;;;19.80;46.30;;;;;;5037257;28;20056;-87
2022/05/01 12:32:12;;;;;;;6.72;3.72;;;19.50;46.80;;;;;;5060250;28;20056;-86
2022/05/01 12:34:55;;;;;;;5.28;3.60;;;19.20;47.50;;;;;;5037131;28;20088;-88
2022/05/01 12:37:39;;;;;;;5.43;3.97;;;18.80;49.10;;;;;;5047468;28;20448;-88
2022/05/01 12:40:09;;;;;;;7.05;3.97;;;18.60;49.20;;;;;;5051055;28;20045;-87
2022/05/01 12:45:44;;;;;;;4.50;4.07;;;18.00;49.70;;;;;;5057188;28;20049;-86
2022/05/01 12:48:11;;;;;;;6.78;3.78;;;17.80;50.00;;;;;;5024526;28;20057;-88
2022/05/01 12:50:41;;;;;;;5.45;4.10;;;17.60;50.40;;;;;;5020213;28;20040;-89
2022/05/01 12:53:30;;;;;;;5.13;4.25;;;17.40;50.00;;;;;;5016756;28;20056;-89
2022/05/01 12:55:59;;;;;;;6.53;3.83;;;17.30;51.50;;;;;;5023695;28;20505;-88
2022/05/01 12:58:34;;;;;;;6.60;4.03;;;17.30;52.80;;;;;;5045108;28;20047;-89
2022/05/01 13:01:04;;;;;;;5.72;3.90;;;17.50;52.30;;;;;;5023714;28;20437;-87
2022/05/01 13:03:37;;;;;;;6.00;3.83;;;17.60;51.40;;;;;;5043578;28;20053;-88
2022/05/01 13:06:08;;;;;;;4.35;3.67;;;17.90;51.20;;;;;;5045091;28;20048;-88
2022/05/01 13:08:34;;;;;;;;;;;18.30;50.90;;;;;;5017068;28;20071;-85
2022/05/01 13:11:19;;;;;;;6.32;3.80;;;18.70;52.30;;;;;;5041365;28;20042;-90
2022/05/01 13:14:05;;;;;;;4.60;3.63;;;19.50;49.40;;;;;;5047845;28;20062;-90
2022/05/01 13:16:31;;;;;;;4.85;3.42;;;20.40;48.60;;;;;;5042442;28;20064;-88
2022/05/01 13:19:12;;;;;;;5.95;3.63;;;21.20;48.30;;;;;;5016749;28;20052;-87